Time;durP1;ratioP1;P1;durP2;ratioP2;P2;SDS_P1;SDS_P2;PMS_P1;PMS_P2;Temp;Humidity;BMP_temperature;BMP_pressure;BME280_temperature;BME280_humidity;BME280_pressure;Samples;Min_cycle;Max_cycle;Signal;HPM_P1;HPM_P2
2022/04/02 00:01:41;;;;;;;7.35;4.47;;;1.50;99.90;;;;;;4988502;28;20490;-60
2022/04/02 00:04:08;;;;;;;8.73;3.75;;;1.50;99.90;;;;;;4988966;28;20047;-58
2022/04/02 00:06:34;;;;;;;5.82;2.60;;;1.60;99.90;;;;;;4989015;28;20062;-59
2022/04/02 00:09:00;;;;;;;10.55;3.78;;;1.60;99.90;;;;;;4989685;28;20097;-58
2022/04/02 00:11:25;;;;;;;6.40;3.67;;;1.60;99.90;;;;;;4988704;28;20165;-59
2022/04/02 00:13:51;;;;;;;9.07;3.15;;;1.70;99.90;;;;;;4989595;28;20038;-60
2022/04/02 00:16:17;;;;;;;8.20;3.60;;;1.70;99.90;;;;;;4988456;28;20113;-57
2022/04/02 00:18:43;;;;;;;7.00;2.92;;;1.70;99.90;;;;;;4989279;28;20530;-58
2022/04/02 00:21:09;;;;;;;10.55;3.22;;;1.70;99.90;;;;;;4988975;28;20033;-59
2022/04/02 00:23:43;;;;;;;5.93;2.60;;;1.70;99.90;;;;;;4989283;28;20038;-58
2022/04/02 00:26:11;;;;;;;10.55;3.33;;;1.70;99.90;;;;;;4987874;28;20108;-58
2022/04/02 00:28:39;;;;;;;9.90;3.30;;;1.70;99.90;;;;;;4988210;28;20015;-59
2022/04/02 00:31:07;;;;;;;3.78;2.80;;;1.70;99.90;;;;;;4988662;28;20031;-58
2022/04/02 00:33:34;;;;;;;8.48;3.53;;;1.60;99.90;;;;;;4988067;28;20068;-61
2022/04/02 00:36:00;;;;;;;16.15;4.10;;;1.60;99.90;;;;;;4989054;28;20018;-60
2022/04/02 00:38:27;;;;;;;4.78;2.65;;;1.60;99.90;;;;;;4988231;28;20150;-59
2022/04/02 00:40:53;;;;;;;9.30;2.63;;;1.70;99.90;;;;;;4988792;28;20035;-58
2022/04/02 00:43:39;;;;;;;5.85;3.58;;;1.70;99.90;;;;;;4988073;28;20520;-58
2022/04/02 00:46:11;;;;;;;12.80;4.68;;;1.70;99.90;;;;;;4988782;28;20038;-60
2022/04/02 00:48:37;;;;;;;12.40;3.08;;;1.60;99.90;;;;;;4988785;28;20470;-58
2022/04/02 00:51:06;;;;;;;5.65;2.88;;;1.60;99.90;;;;;;4989009;28;20080;-59
2022/04/02 00:53:35;;;;;;;10.95;2.65;;;1.60;99.90;;;;;;4988300;28;20054;-57
2022/04/02 00:56:02;;;;;;;7.78;3.55;;;1.60;99.90;;;;;;4988623;28;20501;-60
2022/04/02 00:58:28;;;;;;;19.05;3.85;;;1.60;99.90;;;;;;4982553;28;20034;-58
2022/04/02 01:00:54;;;;;;;6.93;2.80;;;1.70;99.90;;;;;;4973009;28;20047;-60
2022/04/02 01:03:21;;;;;;;8.13;3.55;;;1.70;99.90;;;;;;4973441;28;20478;-58
2022/04/02 01:05:48;;;;;;;12.10;4.35;;;1.60;99.90;;;;;;4973025;28;20094;-60
2022/04/02 01:08:13;;;;;;;8.55;3.50;;;1.60;99.90;;;;;;4986219;28;20030;-59
2022/04/02 01:10:39;;;;;;;6.88;3.08;;;1.60;99.90;;;;;;4992135;28;20029;-58
2022/04/02 01:13:06;;;;;;;12.82;3.22;;;1.60;99.90;;;;;;4992370;28;20034;-59
2022/04/02 01:15:32;;;;;;;9.13;2.42;;;1.60;99.90;;;;;;4992131;28;20113;-58
2022/04/02 01:17:58;;;;;;;5.22;2.50;;;1.60;99.90;;;;;;4992284;28;20125;-59
2022/04/02 01:20:27;;;;;;;14.10;4.47;;;1.70;99.90;;;;;;4991880;28;20035;-59
2022/04/02 01:22:53;;;;;;;10.07;3.67;;;1.70;99.90;;;;;;4991508;28;20110;-60
2022/04/02 01:25:19;;;;;;;12.38;3.83;;;1.60;99.90;;;;;;4991785;28;20109;-59
2022/04/02 01:27:45;;;;;;;12.30;2.78;;;1.60;99.90;;;;;;4992547;28;20385;-57
2022/04/02 01:30:13;;;;;;;15.77;4.13;;;1.60;99.90;;;;;;4992661;28;20026;-58
2022/04/02 01:32:39;;;;;;;9.65;4.28;;;1.60;99.90;;;;;;4990946;28;20145;-57
2022/04/02 01:35:06;;;;;;;9.95;4.78;;;1.60;99.90;;;;;;4992082;28;20081;-58
2022/04/02 01:37:32;;;;;;;7.20;3.67;;;1.60;99.90;;;;;;4989835;28;20050;-58
2022/04/02 01:39:57;;;;;;;9.10;4.50;;;1.60;99.90;;;;;;4992021;28;20217;-58
2022/04/02 01:42:24;;;;;;;9.70;4.93;;;1.60;99.90;;;;;;4992062;28;20058;-58
2022/04/02 01:44:53;;;;;;;13.25;5.80;;;1.60;99.90;;;;;;4991601;28;20442;-60
2022/04/02 01:47:19;;;;;;;9.95;6.03;;;1.50;99.90;;;;;;4991393;28;20038;-58
2022/04/02 01:49:45;;;;;;;8.63;3.53;;;1.50;99.90;;;;;;4991520;28;20026;-58
2022/04/02 01:52:12;;;;;;;11.48;5.38;;;1.50;99.90;;;;;;4989668;28;20442;-60
2022/04/02 01:54:38;;;;;;;11.73;6.63;;;1.50;99.90;;;;;;4991983;28;20477;-60
2022/04/02 01:57:04;;;;;;;10.45;5.88;;;1.50;99.90;;;;;;4991242;28;20046;-57
2022/04/02 01:59:30;;;;;;;19.30;7.72;;;1.40;99.90;;;;;;4990899;28;20068;-57
2022/04/02 02:01:55;;;;;;;6.00;5.05;;;1.40;99.90;;;;;;4990699;28;20069;-57
2022/04/02 02:04:21;;;;;;;21.55;8.45;;;1.40;99.90;;;;;;4990932;28;20084;-60
2022/04/02 02:06:46;;;;;;;10.05;6.88;;;1.40;99.90;;;;;;4991570;28;20026;-60
2022/04/02 02:09:12;;;;;;;13.60;8.95;;;1.30;99.90;;;;;;4991207;28;20026;-57
2022/04/02 02:11:40;;;;;;;18.45;8.15;;;1.20;99.90;;;;;;4990719;28;20601;-59
2022/04/02 02:14:05;;;;;;;11.55;7.90;;;1.00;99.90;;;;;;4990858;28;20489;-57
2022/04/02 02:16:31;;;;;;;10.05;6.72;;;1.00;99.90;;;;;;4991393;28;20088;-59
2022/04/02 02:18:57;;;;;;;21.92;9.27;;;1.00;99.90;;;;;;4990234;28;20105;-59
2022/04/02 02:21:22;;;;;;;12.65;6.57;;;1.00;99.90;;;;;;4990509;28;20093;-59
2022/04/02 02:23:48;;;;;;;14.30;7.47;;;0.90;99.90;;;;;;4991094;28;20080;-58
2022/04/02 02:26:13;;;;;;;7.80;5.43;;;0.90;99.90;;;;;;4990598;28;20022;-60
2022/04/02 02:28:41;;;;;;;11.57;5.70;;;0.80;99.90;;;;;;4991110;28;20022;-59
2022/04/02 02:31:07;;;;;;;12.95;6.00;;;0.70;99.90;;;;;;4990549;28;20080;-58
2022/04/02 02:36:17;;;;;;;8.95;6.13;;;0.60;99.90;;;;;;4990117;28;20037;-57
2022/04/02 02:38:44;;;;;;;18.48;6.75;;;0.60;99.90;;;;;;4990909;28;20029;-58
2022/04/02 02:41:10;;;;;;;8.15;6.15;;;0.60;99.90;;;;;;4990226;28;20092;-59
2022/04/02 02:43:37;;;;;;;8.68;5.75;;;0.60;99.90;;;;;;4990737;28;20402;-59
2022/04/02 02:46:03;;;;;;;12.07;6.85;;;0.60;99.90;;;;;;4989456;28;20030;-58
2022/04/02 02:48:28;;;;;;;8.25;6.07;;;0.60;99.90;;;;;;4990699;28;20382;-60
2022/04/02 02:50:54;;;;;;;9.32;6.30;;;0.60;99.90;;;;;;4988537;28;20033;-59
2022/04/02 02:53:20;;;;;;;11.30;7.13;;;0.60;99.90;;;;;;4990608;28;20106;-57
2022/04/02 02:55:48;;;;;;;14.90;7.72;;;0.60;99.90;;;;;;4990517;28;20022;-60
2022/04/02 02:58:14;;;;;;;9.98;7.45;;;0.60;99.90;;;;;;4989869;28;20034;-58
2022/04/02 03:00:44;;;;;;;16.13;8.55;;;0.60;99.90;;;;;;4990084;28;20030;-60
2022/04/02 03:03:09;;;;;;;15.85;9.90;;;0.60;99.90;;;;;;4990350;28;20023;-59
2022/04/02 03:05:35;;;;;;;11.07;9.98;;;0.60;99.90;;;;;;4990398;28;20026;-58
2022/04/02 03:08:02;;;;;;;10.68;8.55;;;0.60;99.90;;;;;;4990110;28;20031;-60
2022/04/02 03:10:28;;;;;;;16.00;8.82;;;0.60;99.90;;;;;;4990296;28;20074;-60
2022/04/02 03:12:56;;;;;;;17.33;11.00;;;0.60;99.90;;;;;;4989686;28;20515;-58
2022/04/02 03:15:23;;;;;;;16.30;8.05;;;0.60;99.90;;;;;;4990295;28;20482;-59
2022/04/02 03:17:49;;;;;;;16.48;7.93;;;0.60;99.90;;;;;;4989645;28;20034;-58
2022/04/02 03:20:17;;;;;;;16.40;8.35;;;0.60;99.90;;;;;;4989760;28;20110;-58
2022/04/02 03:22:45;;;;;;;13.07;7.43;;;0.60;99.90;;;;;;4989499;28;20581;-60
2022/04/02 03:25:23;;;;;;;8.27;6.57;;;0.60;99.90;;;;;;4989689;28;20037;-59
2022/04/02 03:27:49;;;;;;;8.20;6.75;;;0.70;99.90;;;;;;4989350;28;20018;-57
2022/04/02 03:30:18;;;;;;;18.15;6.88;;;0.70;99.90;;;;;;4989838;28;20026;-60
2022/04/02 03:32:44;;;;;;;10.48;6.43;;;0.70;99.90;;;;;;4989479;28;20030;-58
2022/04/02 03:35:11;;;;;;;9.52;7.07;;;0.70;99.90;;;;;;4989509;28;20038;-59
2022/04/02 03:37:37;;;;;;;18.15;7.30;;;0.70;99.90;;;;;;4989453;28;20026;-58
2022/04/02 03:40:08;;;;;;;14.00;6.82;;;0.70;99.90;;;;;;4989349;28;20038;-59
2022/04/02 03:42:41;;;;;;;12.13;6.55;;;0.60;99.90;;;;;;4989094;28;20363;-60
2022/04/02 03:45:08;;;;;;;16.33;6.30;;;0.70;99.90;;;;;;4990174;28;20449;-58
2022/04/02 03:47:33;;;;;;;8.88;5.75;;;0.70;99.90;;;;;;4989607;28;20031;-59
2022/04/02 03:49:59;;;;;;;7.07;5.60;;;0.70;99.90;;;;;;4988942;28;20045;-59
2022/04/02 03:52:25;;;;;;;9.63;5.43;;;0.60;99.90;;;;;;4988794;28;20117;-58
2022/04/02 03:54:51;;;;;;;8.85;4.50;;;0.70;99.90;;;;;;4988563;28;20081;-60
2022/04/02 03:57:17;;;;;;;11.65;4.85;;;0.70;99.90;;;;;;4988967;28;20030;-58
2022/04/02 03:59:44;;;;;;;11.88;5.57;;;0.70;99.90;;;;;;4988630;28;20150;-59
2022/04/02 04:02:13;;;;;;;8.52;4.57;;;0.70;99.90;;;;;;4988664;28;20022;-57
2022/04/02 04:04:39;;;;;;;9.55;5.63;;;0.70;99.90;;;;;;4988844;28;20367;-57
2022/04/02 04:07:06;;;;;;;7.43;3.92;;;0.70;99.90;;;;;;4989152;28;20386;-57
2022/04/02 04:09:32;;;;;;;11.52;5.20;;;0.60;99.90;;;;;;4989485;28;20022;-58
2022/04/02 04:11:58;;;;;;;9.63;6.32;;;0.60;99.90;;;;;;4988117;28;20018;-59
2022/04/02 04:14:25;;;;;;;12.00;6.50;;;0.60;99.90;;;;;;4989255;28;20038;-58
2022/04/02 04:16:51;;;;;;;13.45;4.45;;;0.60;99.90;;;;;;4988583;28;20041;-60
2022/04/02 04:19:17;;;;;;;8.65;6.25;;;0.60;99.90;;;;;;4989258;28;20501;-60
2022/04/02 04:21:43;;;;;;;11.30;5.35;;;0.60;99.90;;;;;;4988969;28;20080;-60
2022/04/02 04:24:10;;;;;;;9.30;5.55;;;0.60;99.90;;;;;;4987911;28;20022;-58
2022/04/02 04:26:36;;;;;;;6.40;4.60;;;0.60;99.90;;;;;;4988982;28;20038;-59
2022/04/02 04:29:02;;;;;;;5.72;4.40;;;0.60;99.90;;;;;;4988868;28;20566;-57
2022/04/02 04:31:28;;;;;;;5.25;4.50;;;0.60;99.90;;;;;;4988835;28;20065;-57
2022/04/02 04:33:54;;;;;;;6.53;4.85;;;0.60;99.90;;;;;;4992670;28;20061;-57
2022/04/02 04:36:20;;;;;;;9.15;4.65;;;0.50;99.90;;;;;;4993888;28;20118;-59
2022/04/02 04:38:46;;;;;;;9.23;4.88;;;0.60;99.90;;;;;;4991301;28;20490;-59
2022/04/02 04:41:13;;;;;;;15.10;5.78;;;0.60;99.90;;;;;;4992296;28;20042;-59
2022/04/02 04:43:41;;;;;;;6.88;4.93;;;0.60;99.90;;;;;;4992799;28;20038;-58
2022/04/02 04:46:07;;;;;;;13.35;5.10;;;0.50;99.90;;;;;;4992827;28;20548;-58
2022/04/02 04:48:35;;;;;;;7.63;6.63;;;0.50;99.90;;;;;;4993340;28;20448;-59
2022/04/02 04:51:01;;;;;;;8.57;5.35;;;0.50;99.90;;;;;;4992062;28;20038;-58
2022/04/02 04:53:27;;;;;;;7.22;4.93;;;0.50;99.90;;;;;;4992594;28;20026;-58
2022/04/02 04:55:53;;;;;;;7.90;5.30;;;0.50;99.90;;;;;;4992367;28;20053;-58
2022/04/02 04:58:19;;;;;;;10.43;6.53;;;0.50;99.90;;;;;;4986010;28;20034;-58
2022/04/02 05:00:45;;;;;;;8.32;6.18;;;0.50;99.90;;;;;;4972553;28;20553;-57
2022/04/02 05:03:10;;;;;;;9.82;5.55;;;0.50;99.90;;;;;;4973173;28;20471;-59
2022/04/02 05:05:38;;;;;;;16.73;5.45;;;0.50;99.90;;;;;;5003733;28;20100;-60
2022/04/02 05:08:07;;;;;;;5.43;4.93;;;0.40;99.90;;;;;;4992820;28;20110;-60
2022/04/02 05:10:39;;;;;;;6.05;4.78;;;0.40;99.90;;;;;;4991897;28;20118;-57
2022/04/02 05:13:06;;;;;;;11.07;7.47;;;0.40;99.90;;;;;;4991408;28;20090;-60
2022/04/02 05:15:32;;;;;;;5.45;4.28;;;0.40;99.90;;;;;;4992443;28;20014;-59
2022/04/02 05:17:58;;;;;;;7.78;4.60;;;0.30;99.90;;;;;;4992228;28;20033;-60
2022/04/02 05:20:24;;;;;;;8.68;5.00;;;0.30;99.90;;;;;;4991984;28;20081;-59
2022/04/02 05:22:50;;;;;;;8.13;5.22;;;0.40;99.90;;;;;;4991511;28;20030;-59
2022/04/02 05:25:16;;;;;;;6.70;4.55;;;0.40;99.90;;;;;;4991118;28;20513;-57
2022/04/02 05:27:41;;;;;;;8.88;4.45;;;0.40;99.90;;;;;;4991193;28;20056;-58
2022/04/02 05:30:08;;;;;;;5.55;4.35;;;0.40;99.90;;;;;;4992217;28;20053;-59
2022/04/02 05:32:33;;;;;;;9.27;3.70;;;0.40;99.90;;;;;;4990573;28;20398;-57
2022/04/02 05:34:59;;;;;;;5.80;3.45;;;0.30;99.90;;;;;;4991818;28;20117;-57
2022/04/02 05:37:25;;;;;;;7.18;3.78;;;0.40;99.90;;;;;;4989952;28;20090;-60
2022/04/02 05:39:54;;;;;;;5.50;3.05;;;0.30;99.90;;;;;;4991827;28;20034;-60
2022/04/02 05:42:21;;;;;;;5.78;3.30;;;0.30;99.90;;;;;;4991585;28;20072;-57
2022/04/02 05:44:47;;;;;;;8.52;3.97;;;0.30;99.90;;;;;;4991063;28;20022;-57
2022/04/02 05:47:12;;;;;;;7.72;4.13;;;0.40;99.90;;;;;;4991612;28;20390;-59
2022/04/02 05:49:38;;;;;;;8.32;3.95;;;0.40;99.90;;;;;;4991111;28;20030;-58
2022/04/02 05:52:04;;;;;;;6.15;4.30;;;0.40;99.90;;;;;;4991260;28;20026;-60
2022/04/02 05:54:30;;;;;;;11.70;3.55;;;0.40;99.90;;;;;;4991628;28;20034;-58
2022/04/02 05:56:56;;;;;;;6.18;3.50;;;0.40;99.90;;;;;;4990145;28;20031;-58
2022/04/02 05:59:22;;;;;;;11.95;4.05;;;0.40;99.90;;;;;;4990846;28;20042;-58
2022/04/02 06:01:48;;;;;;;4.22;3.50;;;0.40;99.90;;;;;;4990984;28;20054;-59
2022/04/02 06:04:14;;;;;;;9.05;3.97;;;0.50;99.90;;;;;;4990355;28;20046;-58
2022/04/02 06:06:40;;;;;;;5.95;4.00;;;0.50;99.90;;;;;;4991200;28;20018;-59
2022/04/02 06:09:06;;;;;;;4.63;3.95;;;0.40;99.90;;;;;;4990982;28;20049;-60
2022/04/02 06:11:32;;;;;;;7.35;4.00;;;0.40;99.90;;;;;;4991081;28;20193;-58
2022/04/02 06:13:58;;;;;;;11.38;7.32;;;0.50;99.90;;;;;;4991494;28;20026;-58
2022/04/02 06:16:23;;;;;;;6.65;4.35;;;0.50;99.90;;;;;;4990970;28;20105;-58
2022/04/02 06:18:53;;;;;;;4.95;3.83;;;0.50;99.90;;;;;;4989581;28;20062;-58
2022/04/02 06:21:19;;;;;;;5.78;4.57;;;0.50;99.90;;;;;;4990820;28;20481;-57
2022/04/02 06:23:46;;;;;;;6.20;4.65;;;0.50;99.90;;;;;;4991147;28;20114;-58
2022/04/02 06:26:11;;;;;;;7.95;4.47;;;0.50;99.90;;;;;;4990763;28;20031;-58
2022/04/02 06:28:37;;;;;;;17.10;8.70;;;0.50;99.90;;;;;;4991036;28;20030;-57
2022/04/02 06:31:08;;;;;;;8.45;5.40;;;0.50;99.90;;;;;;4990165;28;20054;-60
2022/04/02 06:33:33;;;;;;;7.00;5.90;;;0.60;99.90;;;;;;4991477;28;20096;-58
2022/04/02 06:35:59;;;;;;;8.95;5.10;;;0.60;99.90;;;;;;4990667;28;20481;-59
2022/04/02 06:38:26;;;;;;;7.78;5.47;;;0.70;99.90;;;;;;4975660;28;20027;-57
2022/04/02 06:40:52;;;;;;;7.75;5.75;;;0.70;99.90;;;;;;4970994;28;20528;-58
2022/04/02 06:43:17;;;;;;;6.72;5.80;;;0.70;99.90;;;;;;4970673;28;20043;-58
2022/04/02 06:45:43;;;;;;;6.10;5.32;;;0.70;99.90;;;;;;4971086;28;20030;-58
2022/04/02 06:48:09;;;;;;;6.63;5.40;;;0.60;99.20;;;;;;4971299;28;20442;-59
2022/04/02 06:50:36;;;;;;;12.25;6.45;;;0.60;99.60;;;;;;4970802;28;20102;-60
2022/04/02 06:53:01;;;;;;;13.40;6.85;;;0.60;99.60;;;;;;4968869;28;20511;-59
2022/04/02 06:55:27;;;;;;;6.93;5.55;;;0.70;99.70;;;;;;4970737;28;20051;-59
2022/04/02 06:57:56;;;;;;;7.47;5.68;;;0.70;98.30;;;;;;4970174;28;20109;-58
2022/04/02 07:00:22;;;;;;;7.55;5.30;;;0.80;98.30;;;;;;4970643;28;20025;-58
2022/04/02 07:02:49;;;;;;;6.78;5.05;;;0.80;97.90;;;;;;4970306;28;20035;-58
2022/04/02 07:05:15;;;;;;;9.15;5.63;;;0.80;97.60;;;;;;4970829;28;20390;-58
2022/04/02 07:07:41;;;;;;;5.88;4.95;;;0.90;97.80;;;;;;4979956;28;20510;-57
2022/04/02 07:10:08;;;;;;;6.10;4.70;;;0.90;96.60;;;;;;4990032;28;20029;-57
2022/04/02 07:12:34;;;;;;;7.65;6.50;;;1.00;97.50;;;;;;4990275;28;20018;-59
2022/04/02 07:15:00;;;;;;;8.82;6.38;;;1.10;97.00;;;;;;4989556;28;20042;-58
2022/04/02 07:17:27;;;;;;;7.65;6.03;;;1.10;97.60;;;;;;4989973;28;20117;-60
2022/04/02 07:19:56;;;;;;;8.82;6.10;;;1.30;97.50;;;;;;4989692;28;20062;-57
2022/04/02 07:22:23;;;;;;;8.18;6.43;;;1.30;97.20;;;;;;4989504;28;20018;-60
2022/04/02 07:24:51;;;;;;;8.93;6.43;;;1.40;97.20;;;;;;4988858;28;20026;-58
2022/04/02 07:27:21;;;;;;;7.15;6.45;;;1.50;96.70;;;;;;4990282;28;20489;-59
2022/04/02 07:29:49;;;;;;;10.90;7.40;;;1.70;96.60;;;;;;4989651;28;20085;-58
2022/04/02 07:32:14;;;;;;;8.48;6.60;;;1.70;96.10;;;;;;4989805;28;20045;-60
2022/04/02 07:34:40;;;;;;;7.38;6.68;;;1.80;95.40;;;;;;4989633;28;20026;-59
2022/04/02 07:37:44;;;;;;;8.73;7.82;;;1.80;95.10;;;;;;4989087;28;20069;-60
2022/04/02 07:40:26;;;;;;;8.77;7.05;;;1.80;94.90;;;;;;4987991;28;20058;-57
2022/04/02 07:43:02;;;;;;;9.35;8.30;;;1.70;94.70;;;;;;4989219;28;20034;-58
2022/04/02 07:45:32;;;;;;;15.43;9.30;;;1.70;94.80;;;;;;4989689;28;20022;-59
2022/04/02 07:47:58;;;;;;;10.73;8.38;;;1.60;94.80;;;;;;4989576;28;20506;-59
2022/04/02 07:50:26;;;;;;;12.23;8.93;;;1.60;95.00;;;;;;5003469;28;20027;-60
2022/04/02 07:52:54;;;;;;;10.95;9.63;;;1.60;94.90;;;;;;4988446;28;20031;-58
2022/04/02 07:55:21;;;;;;;9.85;8.93;;;1.70;95.20;;;;;;4989095;28;20520;-58
2022/04/02 07:57:51;;;;;;;8.07;7.38;;;1.70;94.70;;;;;;4986604;28;20108;-58
2022/04/02 08:00:22;;;;;;;9.20;8.35;;;1.70;94.70;;;;;;4969479;28;20027;-60
2022/04/02 08:02:49;;;;;;;17.92;8.88;;;1.80;94.70;;;;;;4968239;28;20027;-60
2022/04/02 08:05:18;;;;;;;10.38;9.30;;;1.90;94.70;;;;;;4970148;28;20023;-60
2022/04/02 08:07:49;;;;;;;12.15;9.70;;;2.00;94.20;;;;;;4968695;28;20510;-58
2022/04/02 08:10:17;;;;;;;9.82;8.82;;;2.10;94.60;;;;;;4974425;28;20049;-60
2022/04/02 08:12:43;;;;;;;16.33;9.85;;;2.10;94.00;;;;;;4988761;28;20026;-57
2022/04/02 08:15:12;;;;;;;8.98;7.82;;;2.20;93.80;;;;;;4989236;28;20219;-59
2022/04/02 08:17:43;;;;;;;11.90;7.78;;;2.30;93.40;;;;;;4988744;28;20038;-59
2022/04/02 08:20:10;;;;;;;9.40;8.55;;;2.40;93.20;;;;;;4988432;28;20501;-57
2022/04/02 08:22:36;;;;;;;10.23;8.57;;;2.40;93.20;;;;;;4988785;28;20036;-59
2022/04/02 08:25:02;;;;;;;13.02;8.35;;;2.50;93.00;;;;;;4988617;28;20030;-60
2022/04/02 08:28:05;;;;;;;12.55;9.05;;;2.70;93.60;;;;;;4989565;28;20034;-58
2022/04/02 08:30:53;;;;;;;24.20;12.45;;;2.90;92.50;;;;;;4988945;28;20049;-60
2022/04/02 08:33:18;;;;;;;15.07;11.07;;;3.00;92.00;;;;;;4989048;28;20034;-59
2022/04/02 08:36:02;;;;;;;7.28;6.50;;;3.10;91.40;;;;;;4988606;28;20041;-58
2022/04/02 08:38:43;;;;;;;12.82;7.72;;;3.30;91.70;;;;;;4988019;28;20067;-58
2022/04/02 08:41:27;;;;;;;11.48;8.88;;;3.50;92.00;;;;;;4987658;28;20093;-60
2022/04/02 08:44:12;;;;;;;23.83;13.70;;;3.70;90.20;;;;;;4988563;28;20041;-58
2022/04/02 08:47:08;;;;;;;19.38;13.00;;;4.00;90.80;;;;;;4988370;28;20514;-60
2022/04/02 08:49:41;;;;;;;18.58;10.93;;;4.30;90.30;;;;;;4987777;28;20109;-59
2022/04/02 08:52:18;;;;;;;7.68;6.57;;;4.10;88.40;;;;;;4987805;28;20093;-60
2022/04/02 08:55:14;;;;;;;12.82;8.18;;;4.30;88.50;;;;;;4988935;28;20050;-58
2022/04/02 08:57:54;;;;;;;22.90;10.40;;;4.00;84.20;;;;;;4988474;28;20533;-58
2022/04/02 09:00:26;;;;;;;23.85;10.80;;;4.00;88.50;;;;;;4987095;28;20486;-58
2022/04/02 09:03:06;;;;;;;15.98;8.32;;;3.90;87.90;;;;;;4988815;28;20026;-59
2022/04/02 09:05:41;;;;;;;18.05;8.93;;;4.00;85.30;;;;;;4988726;28;20026;-59
2022/04/02 09:08:10;;;;;;;15.95;6.90;;;3.90;85.60;;;;;;4989096;28;20023;-58
2022/04/02 09:10:57;;;;;;;25.80;9.18;;;3.40;87.30;;;;;;4988158;28;20030;-57
2022/04/02 09:13:51;;;;;;;14.30;7.07;;;3.50;86.40;;;;;;4988076;28;20061;-60
2022/04/02 09:16:45;;;;;;;15.02;7.55;;;3.80;87.30;;;;;;4987779;28;20056;-58
2022/04/02 09:19:31;;;;;;;32.90;10.05;;;4.10;86.20;;;;;;4989641;28;20022;-59
2022/04/02 09:22:26;;;;;;;6.53;5.43;;;4.30;82.30;;;;;;4991920;28;20041;-59
2022/04/02 09:25:13;;;;;;;19.08;9.52;;;4.50;85.30;;;;;;4987957;28;20042;-59
2022/04/02 09:28:06;;;;;;;4.38;3.95;;;4.80;82.20;;;;;;4991927;28;20026;-58
2022/04/02 09:30:32;;;;;;;6.95;4.43;;;4.90;81.10;;;;;;4992072;28;20110;-58
2022/04/02 09:33:42;;;;;;;9.93;6.22;;;4.90;79.70;;;;;;4991159;28;20037;-60
2022/04/02 09:36:22;;;;;;;6.40;5.32;;;4.90;79.90;;;;;;4992210;28;20090;-60
2022/04/02 09:39:03;;;;;;;9.90;6.63;;;4.70;80.50;;;;;;4990013;28;20367;-59
2022/04/02 09:41:32;;;;;;;9.65;6.13;;;4.50;78.50;;;;;;4991386;28;20030;-58
2022/04/02 09:44:38;;;;;;;15.07;6.18;;;4.30;80.70;;;;;;4990199;28;20030;-60
2022/04/02 09:47:18;;;;;;;10.13;7.88;;;4.40;81.40;;;;;;4968295;28;20035;-60
2022/04/02 09:50:08;;;;;;;9.82;5.78;;;4.20;80.90;;;;;;4971133;28;20675;-58
2022/04/02 09:52:46;;;;;;;8.20;5.07;;;4.50;81.00;;;;;;4970249;28;20084;-60
2022/04/02 09:55:20;;;;;;;12.70;6.53;;;4.60;80.20;;;;;;4971078;28;20371;-58
2022/04/02 09:57:45;;;;;;;8.57;5.57;;;4.70;80.00;;;;;;4971468;28;20019;-57
2022/04/02 10:00:22;;;;;;;11.30;6.18;;;5.00;79.50;;;;;;4972302;28;20026;-60
2022/04/02 10:03:19;;;;;;;10.70;5.65;;;4.50;75.90;;;;;;4972053;28;20419;-59
2022/04/02 10:05:56;;;;;;;5.53;4.82;;;4.70;80.00;;;;;;4970052;28;20027;-58
2022/04/02 10:08:34;;;;;;;6.88;4.60;;;4.70;80.50;;;;;;4971939;28;20057;-58
2022/04/02 10:11:04;;;;;;;12.10;5.45;;;4.70;77.80;;;;;;4981733;28;20084;-58
2022/04/02 10:13:33;;;;;;;8.73;5.33;;;4.70;78.90;;;;;;4991028;28;20391;-58
2022/04/02 10:15:59;;;;;;;7.45;5.85;;;4.90;79.40;;;;;;4989634;28;20057;-60
2022/04/02 10:18:27;;;;;;;8.70;5.47;;;5.10;79.20;;;;;;4990207;28;20026;-58
2022/04/02 10:20:53;;;;;;;5.10;4.53;;;5.20;77.70;;;;;;4991015;28;20080;-59
2022/04/02 10:23:23;;;;;;;10.23;3.92;;;5.40;77.60;;;;;;4991331;28;20023;-60
2022/04/02 10:26:16;;;;;;;6.15;3.15;;;5.50;75.70;;;;;;4991346;28;20023;-58
2022/04/02 10:29:11;;;;;;;5.03;3.00;;;5.30;77.50;;;;;;4990871;28;20045;-59
2022/04/02 10:31:53;;;;;;;5.30;3.67;;;4.70;75.80;;;;;;4990194;28;20030;-59
2022/04/02 10:34:48;;;;;;;5.93;3.25;;;4.60;77.60;;;;;;4991118;28;20034;-59
2022/04/02 10:37:18;;;;;;;5.40;3.58;;;4.70;78.00;;;;;;4988453;28;20490;-58
2022/04/02 10:39:57;;;;;;;7.00;4.85;;;4.80;79.00;;;;;;4990164;28;20022;-60
2022/04/02 10:42:37;;;;;;;6.03;3.25;;;4.70;76.50;;;;;;4990518;28;20030;-58
2022/04/02 10:45:04;;;;;;;3.15;2.85;;;4.30;75.80;;;;;;4990953;28;20042;-60
2022/04/02 10:47:30;;;;;;;5.78;3.10;;;4.50;79.60;;;;;;4990207;28;20041;-60
2022/04/02 10:50:07;;;;;;;3.15;2.63;;;4.80;77.60;;;;;;4990610;28;20042;-58
2022/04/02 10:52:34;;;;;;;3.80;3.40;;;4.90;77.90;;;;;;4988448;28;20027;-57
2022/04/02 10:55:00;;;;;;;4.25;3.13;;;5.20;76.50;;;;;;4990497;28;20031;-59
2022/04/02 10:57:32;;;;;;;5.13;3.08;;;5.10;73.60;;;;;;4991192;28;20486;-60
2022/04/02 11:00:07;;;;;;;4.63;3.13;;;5.30;75.30;;;;;;4989962;28;20513;-59
2022/04/02 11:02:44;;;;;;;4.38;3.30;;;5.60;74.00;;;;;;4990224;28;20033;-58
2022/04/02 11:05:13;;;;;;;3.08;2.78;;;5.70;73.10;;;;;;4990063;28;20028;-60
2022/04/02 11:07:46;;;;;;;7.72;4.22;;;5.90;72.80;;;;;;4990545;28;20481;-60
2022/04/02 11:10:20;;;;;;;3.90;3.45;;;5.80;72.50;;;;;;4989607;28;20438;-60
2022/04/02 11:12:48;;;;;;;6.43;3.35;;;5.60;73.10;;;;;;4989948;28;20092;-59
2022/04/02 11:15:19;;;;;;;5.05;3.00;;;5.60;72.60;;;;;;4990274;28;20053;-58
2022/04/02 11:17:47;;;;;;;3.27;2.90;;;5.20;73.80;;;;;;4990201;28;20023;-59
2022/04/02 11:20:22;;;;;;;3.55;3.00;;;5.30;75.80;;;;;;4989522;28;20030;-60
2022/04/02 11:23:02;;;;;;;6.75;2.50;;;5.50;73.30;;;;;;4988536;28;20565;-58
2022/04/02 11:25:34;;;;;;;4.47;2.73;;;5.60;73.70;;;;;;4987573;28;20122;-58
2022/04/02 11:28:14;;;;;;;7.18;2.97;;;5.60;72.50;;;;;;4988904;28;20066;-58
2022/04/02 11:30:44;;;;;;;6.22;3.22;;;5.80;74.00;;;;;;4988297;28;20117;-60
2022/04/02 11:33:19;;;;;;;7.10;3.30;;;5.60;71.20;;;;;;4989135;28;20028;-60
2022/04/02 11:35:51;;;;;;;4.93;3.25;;;5.40;73.20;;;;;;4990302;28;20081;-60
2022/04/02 11:38:30;;;;;;;4.10;3.42;;;5.50;73.90;;;;;;4989600;28;20137;-58
2022/04/02 11:41:10;;;;;;;6.72;4.22;;;5.80;72.80;;;;;;4989237;28;20061;-59
2022/04/02 11:43:45;;;;;;;5.97;4.22;;;6.10;73.90;;;;;;4989055;28;20030;-58
2022/04/02 11:46:14;;;;;;;8.57;6.03;;;6.50;73.90;;;;;;4988289;28;20027;-58
2022/04/02 11:49:10;;;;;;;6.22;4.22;;;6.90;73.00;;;;;;4987593;28;20485;-60
2022/04/02 11:51:36;;;;;;;4.57;4.18;;;7.30;72.50;;;;;;4987432;28;20034;-60
2022/04/02 11:54:11;;;;;;;3.38;2.72;;;7.30;69.40;;;;;;4989488;28;20030;-60
2022/04/02 11:56:46;;;;;;;5.97;4.00;;;7.30;69.70;;;;;;4988433;28;20043;-58
2022/04/02 11:59:16;;;;;;;6.10;4.63;;;7.50;67.80;;;;;;4988599;28;20493;-59
2022/04/02 12:01:51;;;;;;;4.70;3.83;;;7.50;67.20;;;;;;4987836;28;20066;-59
2022/04/02 12:04:18;;;;;;;4.38;3.97;;;7.40;68.20;;;;;;4988671;28;20122;-58
2022/04/02 12:06:49;;;;;;;6.32;4.20;;;7.30;68.80;;;;;;4989434;28;20569;-60
2022/04/02 12:09:25;;;;;;;8.10;5.25;;;7.40;67.70;;;;;;4989502;28;20022;-59
2022/04/02 12:11:58;;;;;;;4.72;4.13;;;7.30;68.00;;;;;;4989047;28;20042;-58
2022/04/02 12:14:33;;;;;;;5.13;4.20;;;7.40;67.90;;;;;;4988716;28;20486;-60
2022/04/02 12:17:02;;;;;;;6.38;5.10;;;7.50;67.70;;;;;;4988978;28;20058;-58
2022/04/02 12:19:38;;;;;;;5.20;4.45;;;7.80;68.70;;;;;;4989131;28;20070;-59
2022/04/02 12:22:22;;;;;;;6.82;6.20;;;8.10;66.80;;;;;;4988009;28;20043;-60
2022/04/02 12:24:50;;;;;;;9.77;8.80;;;8.30;66.90;;;;;;4988879;28;20018;-59
2022/04/02 12:27:21;;;;;;;9.00;6.35;;;8.40;66.20;;;;;;4989298;28;20019;-60
2022/04/02 12:29:48;;;;;;;6.97;5.85;;;8.40;65.40;;;;;;4988466;28;20031;-58
2022/04/02 12:32:29;;;;;;;6.90;6.20;;;8.30;64.40;;;;;;4987939;28;20037;-58
2022/04/02 12:35:14;;;;;;;4.65;4.25;;;8.20;64.40;;;;;;4988544;28;20372;-60
2022/04/02 12:37:43;;;;;;;6.30;5.35;;;8.00;63.00;;;;;;4988773;28;20572;-58
2022/04/02 12:40:17;;;;;;;9.25;7.55;;;7.80;66.00;;;;;;4988511;28;20042;-58
2022/04/02 12:42:46;;;;;;;6.10;5.00;;;7.70;66.50;;;;;;4988754;28;20102;-60
2022/04/02 12:45:18;;;;;;;6.18;4.82;;;7.70;66.80;;;;;;4989270;28;20431;-60
2022/04/02 12:47:55;;;;;;;;;;;7.60;65.80;;;;;;4988640;28;20038;-58
2022/04/02 12:50:21;;;;;;;5.82;4.82;;;7.60;65.30;;;;;;4987378;28;19956;-58
2022/04/02 12:52:48;;;;;;;7.18;5.25;;;7.60;67.00;;;;;;4987172;28;20031;-59
2022/04/02 12:55:25;;;;;;;7.45;4.70;;;7.60;67.50;;;;;;4992572;28;20031;-58
2022/04/02 12:58:07;;;;;;;8.05;5.97;;;7.50;67.10;;;;;;4989342;28;20478;-58
2022/04/02 13:00:44;;;;;;;6.28;5.00;;;7.10;67.60;;;;;;4972974;28;20258;-60
2022/04/02 13:03:23;;;;;;;4.90;4.25;;;7.00;67.80;;;;;;4991406;28;20601;-59
2022/04/02 13:05:51;;;;;;;4.50;4.10;;;7.00;67.40;;;;;;4992540;28;20121;-57
2022/04/02 13:08:17;;;;;;;6.07;3.97;;;6.70;65.40;;;;;;4992319;28;20050;-58
2022/04/02 13:10:45;;;;;;;4.25;3.95;;;6.80;67.40;;;;;;5007457;28;20053;-59
2022/04/02 13:13:13;;;;;;;7.30;4.47;;;7.00;67.70;;;;;;4991265;28;20052;-59